aviador You're here:

EINN Decoded Metar

SHANNON in IRELAND
Report Time2018-01-19 05:00:00
UTC Time2018-01-19 05:30:00
Flight Rules vfr VFR
Wind210° at 08 kt
W.Decomp.*RWY 24: 7.3 kt HW 3.4 kt LCW
W.Rank210° ranks 17
Current wind is below 210° avg. (9.4)
Visibility9999 m
Phenomena:N/A
Clouds:Few CB 018 Hf
Expected CloudBase > 800 ft AGL from Temp-Dew spread
CeilingNone
Temp03°C (ISA -12)
Dew Point01°C (87% RH)
AAT-1.7°C
QNH1008 hPa
Density Alt-1,115 ft
Elevation66 ft
Report Wrong Elevation
Raw Report
METAR EINN 190500Z 21008KT 9999 FEW018CB 03/01 Q1008 NOSIG=

Extra information for EINN:More info

Metar Taf Metar & Taf Last 4 Metars F.Rules Stats Wind Profile Meteogram Temp Stats Airport Information Weather charts Add Link Nearby VenuesMetar ALERT Operation Metar Decoded Social comments